Nearby METAR Reports

 

EGNR - Hawarden (aut), United Kingdom
Distance from station: ESE 33mi, 53km
Updated: 16/01/2019 20:50
NOT Current
Light rain, Partly cloudy
Light rain, Partly cloudy
 Wind from varies
Wind: varies 3 mph , 6 km/h
Temperature: 4°C
Dew Point: 2°C
Humidity: 87%
Barometer: 1001 hPa
Summary: Light rain
Clouds: Partly cloudy
Visibility: 6 miles , 10 km
Cloud details: Partly cloudy 914 m
2019/01/16 20:50 EGNR 162050Z VRB03KT 9999 -RA SCT030 04/02 Q1001
EGOV - Valley Raf, United Kingdom
Distance from station: W 33mi, 53km
Updated: 16/01/2019 23:50
Few Clouds
Few Clouds
 Wind from WNW
Wind: WNW 13 mph , 20 km/h
Temperature: 6°C
Wind Chill: 2°C
Dew Point: 3°C
Humidity: 81%
Barometer: 1004 hPa
Clouds: Few Clouds
Visibility: 6 miles , 10 km
Cloud details: Few Clouds 5182 m
2019/01/16 23:50 EGOV 162350Z AUTO 30011KT 9999 FEW170/// 06/03 Q1004
 
EGGP - Liverpool Airpor, United Kingdom
Distance from station: E 37mi, 59km
Updated: 17/01/2019 00:50
Few Clouds
Few Clouds
 Wind from WNW
Wind: WNW 10 mph , 17 km/h
Temperature: 5°C
Wind Chill: 2°C
Dew Point: 2°C
Humidity: 81%
Barometer: 1003 hPa
Clouds: Few Clouds
Visibility: 6 miles , 10 km
Cloud details: Few Clouds 488 m
2019/01/17 00:50 EGGP 170050Z 30009KT 9999 FEW016 05/02 Q1003
EGNH - Blackpool Airpor, United Kingdom
Distance from station: NE 44mi, 72km
Updated: 16/01/2019 20:50
NOT Current
Few Clouds
Few Clouds
 Wind from NW
Wind: NW 13 mph , 20 km/h
Temperature: 6°C
Wind Chill: 2°C
Dew Point: 3°C
Humidity: 81%
Barometer: 1000 hPa
Clouds: Few Clouds
Visibility: 6 miles , 10 km
Cloud details: Few Clouds 671 m
2019/01/16 20:50 EGNH 162050Z 31011KT 9999 FEW022 06/03 Q1000
 
EGNO - Wharton, United Kingdom
Distance from station: NE 47mi, 76km
Updated: 16/01/2019 19:20
NOT Current
Light rain, Showers, Mostly cloudy
Light rain, Showers, Mostly cloudy
 Wind from WNW
Wind: WNW 15 mph , 24 km/h, Gust: 28 mph , 44 km/h
Temperature: 6°C
Wind Chill: 2°C
Dew Point: 4°C
Humidity: 87%
Barometer: 999 hPa
Summary: Light rain, Showers
Clouds: Mostly cloudy
Visibility: 6 miles , 10 km
Cloud details: Few Clouds 274 m
Partly cloudy 488 m
Mostly cloudy 762 m
2019/01/16 19:20 EGNO 161920Z 29013G24KT 260V330 9999 -SHRA FEW009 SCT016 BKN025 06/04 Q0999
EGOS - Shawbury Raf, United Kingdom
Distance from station: SE 56mi, 89km
Updated: 16/01/2019 23:50
Mostly cloudy
Mostly cloudy
 Wind from W
Wind: W 9 mph , 15 km/h
Temperature: 2°C
Wind Chill: -2°C
Dew Point: 2°C
Humidity: 100%
Barometer: 1002 hPa
Clouds: Mostly cloudy
Visibility: 6 miles , 10 km
Cloud details: Few Clouds 671 m
Mostly cloudy 3353 m
2019/01/16 23:50 EGOS 162350Z AUTO 26008KT 9999 FEW022/// BKN110/// 02/02 Q1002 RERA
 
EGCC - Manchester Intl, United Kingdom
Distance from station: E 61mi, 98km
Updated: 17/01/2019 00:50
Partly cloudy
Partly cloudy
 Wind from W
Wind: W 5 mph , 7 km/h
Temperature: 2°C
Wind Chill: 0°C
Dew Point: 1°C
Humidity: 93%
Barometer: 1002 hPa
Clouds: Partly cloudy
Visibility: 6 miles , 10 km
Cloud details: Partly cloudy 671 m
Partly cloudy 1158 m
2019/01/17 00:50 EGCC 170050Z AUTO 28004KT 9999 SCT022 SCT038 02/01 Q1002 TEMPO SHRA
EGNS - Isle Of Man/Rona, United Kingdom
Distance from station: NW 66mi, 107km
Updated: 17/01/2019 00:50
Mostly cloudy
Mostly cloudy
 Wind from NW
Wind: NW 23 mph , 37 km/h
Temperature: 6°C
Wind Chill: 1°C
Dew Point: 1°C
Humidity: 71%
Barometer: 1004 hPa
Clouds: Mostly cloudy
Visibility: 6 miles , 10 km
Cloud details: Few Clouds 457 m
Mostly cloudy 1067 m
2019/01/17 00:50 EGNS 170050Z 32020KT 9999 FEW015 BKN035 06/01 Q1004
 
EGNM - Leeds And Bradfo, United Kingdom
Distance from station: ENE 95mi, 153km
Updated: 17/01/2019 00:50
Partly cloudy
Partly cloudy
 Wind from W
Wind: W 10 mph , 17 km/h
Temperature: 2°C
Wind Chill: -2°C
Dew Point: 1°C
Humidity: 93%
Barometer: 1001 hPa
Clouds: Partly cloudy
Visibility: 6 miles , 10 km
Cloud details: Partly cloudy 914 m
2019/01/17 00:50 EGNM 170050Z 28009KT 9999 SCT030 02/01 Q1001
EGBB - Birmingham Airpo, United Kingdom
Distance from station: ESE 100mi, 161km
Updated: 17/01/2019 00:50
Clear
Clear
 Wind from NW
Wind: NW 8 mph , 13 km/h
Temperature: 4°C
Wind Chill: 1°C
Dew Point: 3°C
Humidity: 93%
Barometer: 1002 hPa
Summary: Clear
Visibility: greater than 7 miles , 10 km
2019/01/17 00:50 EGBB 170050Z 32007KT CAVOK 04/03 Q1002